createdAt,value
2022-11-07T00:00:21.005Z,16.36
2022-11-07T00:01:21.053Z,16.29
2022-11-07T00:02:21.012Z,16.42
2022-11-07T00:03:21.006Z,16.42
2022-11-07T00:04:20.955Z,16.40
2022-11-07T00:05:20.946Z,16.41
2022-11-07T00:06:20.929Z,16.44
2022-11-07T00:07:21.017Z,16.45
2022-11-07T00:08:20.906Z,16.41
2022-11-07T00:09:20.895Z,16.45
2022-11-07T00:10:20.878Z,16.51
2022-11-07T00:11:20.868Z,16.41
2022-11-07T00:12:20.852Z,16.50
2022-11-07T00:13:20.844Z,16.37
2022-11-07T00:14:20.830Z,16.42
2022-11-07T00:15:20.822Z,16.34
2022-11-07T00:16:20.805Z,16.30
2022-11-07T00:17:20.891Z,16.37
2022-11-07T00:18:20.781Z,16.34
2022-11-07T00:19:20.772Z,16.32
2022-11-07T00:20:20.753Z,16.23
2022-11-07T00:21:20.743Z,16.32
2022-11-07T00:22:20.733Z,16.33
2022-11-07T00:23:20.718Z,16.32
2022-11-07T00:24:20.705Z,16.41
2022-11-07T00:25:20.695Z,16.36
2022-11-07T00:26:20.676Z,16.25
2022-11-07T00:27:20.741Z,16.26
2022-11-07T00:28:20.752Z,16.27
2022-11-07T00:29:20.646Z,16.29
2022-11-07T00:30:20.628Z,16.33
2022-11-07T00:31:20.616Z,16.34
2022-11-07T00:32:20.606Z,16.36
2022-11-07T00:33:20.592Z,16.33
2022-11-07T00:34:20.590Z,16.34
2022-11-07T00:35:20.568Z,16.33
2022-11-07T00:36:20.552Z,16.33
2022-11-07T00:37:20.544Z,16.34
2022-11-07T00:38:20.526Z,16.40
2022-11-07T00:39:20.615Z,16.34
2022-11-07T00:40:20.520Z,16.34
2022-11-07T00:41:20.490Z,16.42
2022-11-07T00:42:20.477Z,16.29
2022-11-07T00:43:20.466Z,16.29
2022-11-07T00:44:20.452Z,16.18
2022-11-07T00:45:20.437Z,16.26
2022-11-07T00:46:20.429Z,16.32
2022-11-07T00:47:20.426Z,16.33
2022-11-07T00:48:20.421Z,16.18
2022-11-07T00:49:20.508Z,16.33
2022-11-07T00:50:20.372Z,16.32
2022-11-07T00:51:20.392Z,16.36
2022-11-07T00:52:20.354Z,16.44
2022-11-07T00:53:20.338Z,16.34
2022-11-07T00:54:20.321Z,16.30
2022-11-07T00:55:20.314Z,16.26
2022-11-07T00:56:20.301Z,16.27
2022-11-07T00:57:20.285Z,16.22
2022-11-07T00:58:20.277Z,16.27
2022-11-07T00:59:20.262Z,16.25
2022-11-07T01:00:20.252Z,16.25
2022-11-07T01:01:20.318Z,16.29
2022-11-07T01:02:20.277Z,16.33
2022-11-07T01:03:20.217Z,16.32
2022-11-07T01:04:20.301Z,16.36
2022-11-07T01:05:20.190Z,16.34
2022-11-07T01:06:20.177Z,16.37
2022-11-07T01:07:20.168Z,16.33
2022-11-07T01:08:20.149Z,16.33
2022-11-07T01:09:20.141Z,16.33
2022-11-07T01:10:20.124Z,16.36
2022-11-07T01:11:20.109Z,16.36
2022-11-07T01:12:20.097Z,16.40
2022-11-07T01:13:20.088Z,16.32
2022-11-07T01:14:20.174Z,16.33
2022-11-07T01:15:20.061Z,16.25
2022-11-07T01:16:20.050Z,16.14
2022-11-07T01:17:20.041Z,16.18
2022-11-07T01:18:20.028Z,16.13
2022-11-07T01:19:20.011Z,16.25
2022-11-07T01:20:19.998Z,16.23
2022-11-07T01:21:19.989Z,16.33
2022-11-07T01:22:19.970Z,16.40
2022-11-07T01:23:19.958Z,16.36
2022-11-07T01:24:19.946Z,16.33
2022-11-07T01:25:19.941Z,16.37
2022-11-07T01:26:19.924Z,16.33
2022-11-07T01:27:19.917Z,16.23
2022-11-07T01:28:19.898Z,16.32
2022-11-07T01:29:19.983Z,16.18
2022-11-07T01:30:19.870Z,16.26
2022-11-07T01:31:19.861Z,16.27
2022-11-07T01:32:19.847Z,16.25
2022-11-07T01:33:19.830Z,16.23
2022-11-07T01:34:19.823Z,16.29
2022-11-07T01:35:19.811Z,16.33
2022-11-07T01:36:19.798Z,16.34
2022-11-07T01:37:19.784Z,16.30
2022-11-07T01:38:19.766Z,16.26
2022-11-07T01:39:19.760Z,16.32
2022-11-07T01:40:19.841Z,16.29
2022-11-07T01:41:19.732Z,16.17
2022-11-07T01:42:19.716Z,16.29
2022-11-07T01:43:19.705Z,16.34
2022-11-07T01:44:19.691Z,16.32
2022-11-07T01:45:19.685Z,16.26
2022-11-07T01:46:19.665Z,16.22
2022-11-07T01:47:19.659Z,16.18
2022-11-07T01:48:19.646Z,16.23
2022-11-07T01:49:19.634Z,16.26
2022-11-07T01:50:19.621Z,16.25
2022-11-07T01:51:19.703Z,16.17
2022-11-07T01:52:19.592Z,16.25
2022-11-07T01:53:19.581Z,16.18
2022-11-07T01:54:19.570Z,16.26
2022-11-07T01:55:19.549Z,16.25
2022-11-07T01:56:19.543Z,16.23
2022-11-07T01:57:19.540Z,16.33
2022-11-07T01:58:19.512Z,16.26
2022-11-07T01:59:19.502Z,16.27
2022-11-07T02:00:19.489Z,16.23
2022-11-07T02:01:19.508Z,16.33
2022-11-07T02:02:19.543Z,16.34
2022-11-07T02:03:19.453Z,16.33
2022-11-07T02:04:19.441Z,16.36
2022-11-07T02:05:19.429Z,16.32
2022-11-07T02:06:19.424Z,16.26
2022-11-07T02:07:19.500Z,16.26
2022-11-07T02:08:19.385Z,16.11
2022-11-07T02:09:19.377Z,16.08
2022-11-07T02:10:19.361Z,16.07
2022-11-07T02:11:19.352Z,16.14
2022-11-07T02:12:19.337Z,16.13
2022-11-07T02:13:19.330Z,16.10
2022-11-07T02:14:19.316Z,16.10
2022-11-07T02:15:19.299Z,16.11
2022-11-07T02:16:19.289Z,16.04
2022-11-07T02:17:19.278Z,15.95
2022-11-07T02:18:19.258Z,16.17
2022-11-07T02:19:19.250Z,16.07
2022-11-07T02:20:19.239Z,16.13
2022-11-07T02:21:19.224Z,16.04
2022-11-07T02:22:19.310Z,16.13
2022-11-07T02:23:19.201Z,16.01
2022-11-07T02:24:19.182Z,16.03
2022-11-07T02:25:19.170Z,16.03
2022-11-07T02:26:19.155Z,16.01
2022-11-07T02:27:19.154Z,16.04
2022-11-07T02:28:19.131Z,16.01
2022-11-07T02:29:19.117Z,15.98
2022-11-07T02:30:19.106Z,16.07
2022-11-07T02:31:19.111Z,16.14
2022-11-07T02:32:19.180Z,16.06
2022-11-07T02:33:19.071Z,16.10
2022-11-07T02:34:19.060Z,16.10
2022-11-07T02:35:19.047Z,16.16
2022-11-07T02:36:19.031Z,16.11
2022-11-07T02:37:19.017Z,15.99
2022-11-07T02:38:19.003Z,15.98
2022-11-07T02:39:18.995Z,16.04
2022-11-07T02:40:18.978Z,15.99
2022-11-07T02:41:18.969Z,16.01
2022-11-07T02:42:19.053Z,15.96
2022-11-07T02:43:18.944Z,16.03
2022-11-07T02:44:18.925Z,16.03
2022-11-07T02:45:18.918Z,16.01
2022-11-07T02:46:18.904Z,16.01
2022-11-07T02:47:18.890Z,16.06
2022-11-07T02:48:18.876Z,16.01
2022-11-07T02:49:18.865Z,16.04
2022-11-07T02:50:18.853Z,15.93
2022-11-07T02:51:18.834Z,15.92
2022-11-07T02:52:18.823Z,16.03
2022-11-07T02:53:18.816Z,15.96
2022-11-07T02:54:18.802Z,15.92
2022-11-07T02:55:18.794Z,15.91
2022-11-07T02:56:18.777Z,15.96
2022-11-07T02:57:18.760Z,15.91
2022-11-07T02:58:18.900Z,15.95
2022-11-07T02:59:21.783Z,15.92
2022-11-07T03:00:18.723Z,15.89
2022-11-07T03:01:18.744Z,15.95
2022-11-07T03:02:18.809Z,15.88
2022-11-07T03:03:18.683Z,15.96
2022-11-07T03:04:18.670Z,15.91
2022-11-07T03:05:18.657Z,15.88
2022-11-07T03:06:18.641Z,15.99
2022-11-07T03:07:18.632Z,15.95
2022-11-07T03:08:18.615Z,15.86
2022-11-07T03:09:18.705Z,15.93
2022-11-07T03:10:18.648Z,15.96
2022-11-07T03:11:18.581Z,16.04
2022-11-07T03:12:18.565Z,16.06
2022-11-07T03:13:18.551Z,15.93
2022-11-07T03:14:18.603Z,15.88
2022-11-07T03:15:18.532Z,15.85
2022-11-07T03:16:18.521Z,15.92
2022-11-07T03:17:18.506Z,15.89
2022-11-07T03:18:18.486Z,15.92
2022-11-07T03:19:18.477Z,15.91
2022-11-07T03:20:18.567Z,15.91
2022-11-07T03:21:18.446Z,15.91
2022-11-07T03:22:18.440Z,15.88
2022-11-07T03:23:18.503Z,15.86
2022-11-07T03:24:18.415Z,15.91
2022-11-07T03:25:18.402Z,15.88
2022-11-07T03:26:18.388Z,15.95
2022-11-07T03:27:18.376Z,15.93
2022-11-07T03:28:18.358Z,15.95
2022-11-07T03:29:18.346Z,15.89
2022-11-07T03:30:18.438Z,15.89
2022-11-07T03:31:18.322Z,15.92
2022-11-07T03:32:18.312Z,15.95
2022-11-07T03:33:18.323Z,15.96
2022-11-07T03:34:18.282Z,15.88
2022-11-07T03:35:18.267Z,15.85
2022-11-07T03:36:18.259Z,15.92
2022-11-07T03:37:18.245Z,15.89
2022-11-07T03:38:18.236Z,15.88
2022-11-07T03:39:21.823Z,15.88
2022-11-07T03:40:18.311Z,15.89
2022-11-07T03:41:18.199Z,15.88
2022-11-07T03:42:18.179Z,15.93
2022-11-07T03:43:18.179Z,15.88
2022-11-07T03:44:18.159Z,15.92
2022-11-07T03:45:18.136Z,15.93
2022-11-07T03:46:18.129Z,15.85
2022-11-07T03:47:18.123Z,15.85
2022-11-07T03:48:18.103Z,15.78
2022-11-07T03:49:18.086Z,15.84
2022-11-07T03:50:18.078Z,15.88
2022-11-07T03:51:18.061Z,15.86
2022-11-07T03:52:18.051Z,15.89
2022-11-07T03:53:22.408Z,15.93
2022-11-07T03:54:18.026Z,15.78
2022-11-07T03:55:18.199Z,15.78
2022-11-07T03:56:18.000Z,15.76
2022-11-07T03:57:17.988Z,15.66
2022-11-07T03:58:17.978Z,15.64
2022-11-07T03:59:17.957Z,15.74
2022-11-07T04:00:17.953Z,15.68
2022-11-07T04:01:18.008Z,15.68
2022-11-07T04:02:18.091Z,15.60
2022-11-07T04:03:18.087Z,15.68
2022-11-07T04:04:17.910Z,15.67
2022-11-07T04:05:18.076Z,15.66
2022-11-07T04:06:17.868Z,15.62
2022-11-07T04:07:17.853Z,15.60
2022-11-07T04:08:17.844Z,15.66
2022-11-07T04:09:17.833Z,15.59
2022-11-07T04:10:17.813Z,15.66
2022-11-07T04:11:17.804Z,15.62
2022-11-07T04:12:17.786Z,15.66
2022-11-07T04:13:17.853Z,15.67
2022-11-07T04:14:17.768Z,15.60
2022-11-07T04:15:17.752Z,15.62
2022-11-07T04:16:17.951Z,15.66
2022-11-07T04:17:17.723Z,15.64
2022-11-07T04:18:17.708Z,15.67
2022-11-07T04:19:17.693Z,15.58
2022-11-07T04:20:17.685Z,15.51
2022-11-07T04:21:17.674Z,15.66
2022-11-07T04:22:17.658Z,15.56
2022-11-07T04:23:17.901Z,15.56
2022-11-07T04:24:17.636Z,15.56
2022-11-07T04:25:17.637Z,15.53
2022-11-07T04:26:17.609Z,15.53
2022-11-07T04:27:17.694Z,15.53
2022-11-07T04:28:17.583Z,15.58
2022-11-07T04:29:17.572Z,15.44
2022-11-07T04:30:17.551Z,15.52
2022-11-07T04:31:17.541Z,15.43
2022-11-07T04:32:17.527Z,15.43
2022-11-07T04:33:17.744Z,15.41
2022-11-07T04:34:17.501Z,15.46
2022-11-07T04:35:17.503Z,15.41
2022-11-07T04:36:17.474Z,15.43
2022-11-07T04:37:17.460Z,15.43
2022-11-07T04:38:17.451Z,15.43
2022-11-07T04:39:17.436Z,15.49
2022-11-07T04:40:17.426Z,15.44
2022-11-07T04:41:17.406Z,15.41
2022-11-07T04:42:17.497Z,15.44
2022-11-07T04:43:17.593Z,15.53
2022-11-07T04:44:17.373Z,15.46
2022-11-07T04:45:17.371Z,15.53
2022-11-07T04:46:17.342Z,15.41
2022-11-07T04:47:17.331Z,15.37
2022-11-07T04:48:17.318Z,15.35
2022-11-07T04:49:17.305Z,15.38
2022-11-07T04:50:17.287Z,15.34
2022-11-07T04:51:17.274Z,15.38
2022-11-07T04:52:17.260Z,15.35
2022-11-07T04:53:17.400Z,15.37
2022-11-07T04:54:17.232Z,15.34
2022-11-07T04:55:17.224Z,15.31
2022-11-07T04:56:17.207Z,15.37
2022-11-07T04:57:17.198Z,15.38
2022-11-07T04:58:17.191Z,15.37
2022-11-07T04:59:17.166Z,15.40
2022-11-07T05:00:17.158Z,15.27
2022-11-07T05:01:17.142Z,15.31
2022-11-07T05:02:17.223Z,15.28
2022-11-07T05:03:17.292Z,15.37
2022-11-07T05:04:17.108Z,15.41
2022-11-07T05:05:17.084Z,15.40
2022-11-07T05:06:17.072Z,15.33
2022-11-07T05:07:17.163Z,15.41
2022-11-07T05:08:17.053Z,15.34
2022-11-07T05:09:17.036Z,15.35
2022-11-07T05:10:17.023Z,15.34
2022-11-07T05:11:17.013Z,15.37
2022-11-07T05:12:16.997Z,15.27
2022-11-07T05:13:17.245Z,15.37
2022-11-07T05:14:16.971Z,15.31
2022-11-07T05:15:16.968Z,15.31
2022-11-07T05:16:16.941Z,15.27
2022-11-07T05:17:16.926Z,15.20
2022-11-07T05:18:16.917Z,15.30
2022-11-07T05:19:16.910Z,15.22
2022-11-07T05:20:16.894Z,15.25
2022-11-07T05:21:16.878Z,15.30
2022-11-07T05:22:16.860Z,15.23
2022-11-07T05:23:17.265Z,15.28
2022-11-07T05:24:16.843Z,15.38
2022-11-07T05:25:16.822Z,15.37
2022-11-07T05:26:16.807Z,15.35
2022-11-07T05:27:16.797Z,15.28
2022-11-07T05:28:16.819Z,15.37
2022-11-07T05:29:16.771Z,15.33
2022-11-07T05:30:16.759Z,15.43
2022-11-07T05:31:16.743Z,15.41
2022-11-07T05:32:16.731Z,15.41
2022-11-07T05:33:16.894Z,15.41
2022-11-07T05:34:16.701Z,15.43
2022-11-07T05:35:16.690Z,15.40
2022-11-07T05:36:16.674Z,15.33
2022-11-07T05:37:16.662Z,15.30
2022-11-07T05:38:16.649Z,15.35
2022-11-07T05:39:16.638Z,15.35
2022-11-07T05:40:16.729Z,15.40
2022-11-07T05:41:16.611Z,15.48
2022-11-07T05:42:16.598Z,15.44
2022-11-07T05:43:16.753Z,15.38
2022-11-07T05:44:16.569Z,15.49
2022-11-07T05:45:16.558Z,15.43
2022-11-07T05:46:16.546Z,15.51
2022-11-07T05:47:16.529Z,15.53
2022-11-07T05:48:16.517Z,15.56
2022-11-07T05:49:16.500Z,15.56
2022-11-07T05:50:16.491Z,15.40
2022-11-07T05:51:16.473Z,15.49
2022-11-07T05:52:16.468Z,15.46
2022-11-07T05:53:16.786Z,15.58
2022-11-07T05:54:16.442Z,15.55
2022-11-07T05:55:16.424Z,15.56
2022-11-07T05:56:16.510Z,15.60
2022-11-07T05:57:16.398Z,15.52
2022-11-07T05:58:16.386Z,15.52
2022-11-07T05:59:16.367Z,15.56
2022-11-07T06:00:16.359Z,15.56
2022-11-07T06:01:16.346Z,15.55
2022-11-07T06:02:16.461Z,15.49
2022-11-07T06:03:16.611Z,15.60
2022-11-07T06:04:16.317Z,15.60
2022-11-07T06:05:19.319Z,15.60
2022-11-07T06:06:16.386Z,15.66
2022-11-07T06:07:16.266Z,15.66
2022-11-07T06:08:16.259Z,15.68
2022-11-07T06:09:16.244Z,15.62
2022-11-07T06:10:16.233Z,15.59
2022-11-07T06:11:16.217Z,15.55
2022-11-07T06:12:16.202Z,15.48
2022-11-07T06:13:16.352Z,15.49
2022-11-07T06:14:16.177Z,15.53
2022-11-07T06:15:16.169Z,15.62
2022-11-07T06:16:16.150Z,15.55
2022-11-07T06:17:16.145Z,15.52
2022-11-07T06:18:16.122Z,15.53
2022-11-07T06:19:16.113Z,15.48
2022-11-07T06:20:16.099Z,15.49
2022-11-07T06:21:16.180Z,15.51
2022-11-07T06:22:16.218Z,15.55
2022-11-07T06:23:16.323Z,15.53
2022-11-07T06:24:16.045Z,15.43
2022-11-07T06:25:16.035Z,15.30
2022-11-07T06:26:16.024Z,15.40
2022-11-07T06:27:16.004Z,15.35
2022-11-07T06:28:15.995Z,15.41
2022-11-07T06:29:15.981Z,15.35
2022-11-07T06:30:15.967Z,15.34
2022-11-07T06:31:15.948Z,15.44
2022-11-07T06:32:15.940Z,15.33
2022-11-07T06:33:16.164Z,15.41
2022-11-07T06:34:15.913Z,15.44
2022-11-07T06:35:15.895Z,15.28
2022-11-07T06:36:15.888Z,15.37
2022-11-07T06:37:15.973Z,15.38
2022-11-07T06:38:15.864Z,15.40
2022-11-07T06:39:15.843Z,15.40
2022-11-07T06:40:15.835Z,15.41
2022-11-07T06:41:15.823Z,15.43
2022-11-07T06:42:15.809Z,15.38
2022-11-07T06:43:16.036Z,15.41
2022-11-07T06:44:15.783Z,15.37
2022-11-07T06:45:15.765Z,15.49
2022-11-07T06:46:15.751Z,15.38
2022-11-07T06:47:15.738Z,15.40
2022-11-07T06:48:15.830Z,15.38
2022-11-07T06:49:15.714Z,15.52
2022-11-07T06:50:15.700Z,15.46
2022-11-07T06:51:15.681Z,15.51
2022-11-07T06:52:15.679Z,15.51
2022-11-07T06:53:15.876Z,15.48
2022-11-07T06:54:15.647Z,15.52
2022-11-07T06:55:15.634Z,15.44
2022-11-07T06:56:15.621Z,15.53
2022-11-07T06:57:15.611Z,15.44
2022-11-07T06:58:15.594Z,15.51
2022-11-07T06:59:15.725Z,15.52
2022-11-07T07:00:15.572Z,15.59
2022-11-07T07:01:15.639Z,15.44
2022-11-07T07:02:25.917Z,15.46
2022-11-07T07:03:15.665Z,15.44
2022-11-07T07:04:15.515Z,15.43
2022-11-07T07:05:20.762Z,15.53
2022-11-07T07:06:15.499Z,15.43
2022-11-07T07:07:15.471Z,15.51
2022-11-07T07:08:15.481Z,15.52
2022-11-07T07:09:15.450Z,15.48
2022-11-07T07:10:15.438Z,15.51
2022-11-07T07:11:15.421Z,15.46
2022-11-07T07:12:15.413Z,15.52
2022-11-07T07:13:15.626Z,15.49
2022-11-07T07:14:15.496Z,15.53
2022-11-07T07:15:15.372Z,15.40
2022-11-07T07:16:15.358Z,15.51
2022-11-07T07:17:15.347Z,15.40
2022-11-07T07:18:15.330Z,15.40
2022-11-07T07:19:15.319Z,15.43
2022-11-07T07:20:15.303Z,15.33
2022-11-07T07:21:15.293Z,15.46
2022-11-07T07:22:15.281Z,15.40
2022-11-07T07:23:15.258Z,15.35
2022-11-07T07:24:15.255Z,15.34
2022-11-07T07:25:15.238Z,15.27
2022-11-07T07:26:15.227Z,15.34
2022-11-07T07:27:15.208Z,15.38
2022-11-07T07:28:15.193Z,15.35
2022-11-07T07:29:15.285Z,15.37
2022-11-07T07:30:15.175Z,15.37
2022-11-07T07:31:15.155Z,15.38
2022-11-07T07:32:15.146Z,15.37
2022-11-07T07:33:15.288Z,15.34
2022-11-07T07:34:15.124Z,15.40
2022-11-07T07:35:15.107Z,15.37
2022-11-07T07:36:19.369Z,15.38
2022-11-07T07:37:15.081Z,15.38
2022-11-07T07:38:15.065Z,15.40
2022-11-07T07:39:15.048Z,15.37
2022-11-07T07:40:15.040Z,15.40
2022-11-07T07:41:15.025Z,15.31
2022-11-07T07:42:15.010Z,15.37
2022-11-07T07:43:15.431Z,15.38
2022-11-07T07:44:15.085Z,15.33
2022-11-07T07:45:14.974Z,15.35
2022-11-07T07:46:14.954Z,15.41
2022-11-07T07:47:14.947Z,15.34
2022-11-07T07:48:14.929Z,15.34
2022-11-07T07:49:14.920Z,15.43
2022-11-07T07:50:14.904Z,15.37
2022-11-07T07:51:14.892Z,15.30
2022-11-07T07:52:14.878Z,15.41
2022-11-07T07:53:15.011Z,15.31
2022-11-07T07:54:14.849Z,15.34
2022-11-07T07:55:14.837Z,15.31
2022-11-07T07:56:14.824Z,15.38
2022-11-07T07:57:14.810Z,15.41
2022-11-07T07:58:14.794Z,15.44
2022-11-07T07:59:14.781Z,15.35
2022-11-07T08:00:14.869Z,15.41
2022-11-07T08:01:14.788Z,15.40
2022-11-07T08:02:14.814Z,15.44
2022-11-07T08:03:14.924Z,15.38
2022-11-07T08:04:14.715Z,15.38
2022-11-07T08:05:14.706Z,15.35
2022-11-07T08:06:14.690Z,15.33
2022-11-07T08:07:14.675Z,15.40
2022-11-07T08:08:14.662Z,15.40
2022-11-07T08:09:14.649Z,15.37
2022-11-07T08:10:40.125Z,15.44
2022-11-07T08:11:14.722Z,15.40
2022-11-07T08:12:14.606Z,15.40
2022-11-07T08:13:14.866Z,15.41
2022-11-07T08:14:14.590Z,15.37
2022-11-07T08:15:14.574Z,15.37
2022-11-07T08:16:14.560Z,15.30
2022-11-07T08:17:14.542Z,15.40
2022-11-07T08:18:14.525Z,15.40
2022-11-07T08:19:14.511Z,15.37
2022-11-07T08:20:14.503Z,15.43
2022-11-07T08:21:14.493Z,15.35
2022-11-07T08:22:14.480Z,15.40
2022-11-07T08:23:16.790Z,15.48
2022-11-07T08:24:14.452Z,15.37
2022-11-07T08:25:14.433Z,15.37
2022-11-07T08:26:14.424Z,15.46
2022-11-07T08:27:14.506Z,15.46
2022-11-07T08:28:14.398Z,15.40
2022-11-07T08:29:14.381Z,15.34
2022-11-07T08:30:17.893Z,15.46
2022-11-07T08:31:14.357Z,15.35
2022-11-07T08:32:14.342Z,15.35
2022-11-07T08:33:14.706Z,15.38
2022-11-07T08:34:14.605Z,15.37
2022-11-07T08:35:14.298Z,15.35
2022-11-07T08:36:14.294Z,15.31
2022-11-07T08:37:14.281Z,15.18
2022-11-07T08:38:14.261Z,15.25
2022-11-07T08:39:14.250Z,15.23
2022-11-07T08:40:14.237Z,15.20
2022-11-07T08:41:17.193Z,15.27
2022-11-07T08:42:14.210Z,15.35
2022-11-07T08:43:14.457Z,15.16
2022-11-07T08:44:14.185Z,15.15
2022-11-07T08:45:14.167Z,15.22
2022-11-07T08:46:14.156Z,15.22
2022-11-07T08:47:14.138Z,15.31
2022-11-07T08:48:14.138Z,15.30
2022-11-07T08:49:14.120Z,15.18
2022-11-07T08:50:14.111Z,15.27
2022-11-07T08:51:14.107Z,15.23
2022-11-07T08:52:14.176Z,15.18
2022-11-07T08:53:14.056Z,15.27
2022-11-07T08:54:14.048Z,15.15
2022-11-07T08:55:14.045Z,15.20
2022-11-07T08:56:14.022Z,15.25
2022-11-07T08:57:14.009Z,15.30
2022-11-07T08:58:13.992Z,15.34
2022-11-07T08:59:13.980Z,15.30
2022-11-07T09:00:13.966Z,15.38
2022-11-07T09:01:13.961Z,15.30
2022-11-07T09:04:14.082Z,15.25
2022-11-07T09:05:13.902Z,15.22
2022-11-07T09:06:13.883Z,15.23
2022-11-07T09:07:13.869Z,15.20
2022-11-07T09:08:13.955Z,15.22
2022-11-07T09:09:16.591Z,15.19
2022-11-07T09:10:13.833Z,15.23
2022-11-07T09:11:13.815Z,15.22
2022-11-07T09:12:13.799Z,15.18
2022-11-07T09:13:14.030Z,15.13
2022-11-07T09:14:13.780Z,15.20
2022-11-07T09:15:13.761Z,15.22
2022-11-07T09:16:13.751Z,15.25
2022-11-07T09:17:13.741Z,15.20
2022-11-07T09:18:13.726Z,15.27
2022-11-07T09:19:13.807Z,15.31
2022-11-07T09:20:13.694Z,15.28
2022-11-07T09:21:16.543Z,15.23
2022-11-07T09:22:13.673Z,15.33
2022-11-07T09:23:13.907Z,15.38
2022-11-07T09:24:13.643Z,15.34
2022-11-07T09:25:13.632Z,15.19
2022-11-07T09:26:13.613Z,15.19
2022-11-07T09:27:13.599Z,15.23
2022-11-07T09:28:13.591Z,15.23
2022-11-07T09:29:13.577Z,15.19
2022-11-07T09:30:13.679Z,15.18
2022-11-07T09:31:13.544Z,15.23
2022-11-07T09:32:42.699Z,15.33
2022-11-07T09:33:13.827Z,15.27
2022-11-07T09:34:13.509Z,15.19
2022-11-07T09:35:13.500Z,15.27
2022-11-07T09:36:13.474Z,15.22
2022-11-07T09:37:13.463Z,15.22
2022-11-07T09:38:13.450Z,15.20
2022-11-07T09:39:13.439Z,15.15
2022-11-07T09:40:13.524Z,15.22
2022-11-07T09:41:13.519Z,15.18
2022-11-07T09:42:13.398Z,15.20
2022-11-07T09:43:13.613Z,15.13
2022-11-07T09:44:13.369Z,15.20
2022-11-07T09:45:13.368Z,15.20
2022-11-07T09:46:13.343Z,15.19
2022-11-07T09:47:13.328Z,15.18
2022-11-07T09:48:13.316Z,15.22
2022-11-07T09:49:13.304Z,15.23
2022-11-07T09:50:13.385Z,15.27
2022-11-07T09:51:13.280Z,15.25
2022-11-07T09:52:13.261Z,15.38
2022-11-07T09:53:13.510Z,15.38
2022-11-07T09:54:13.297Z,15.43
2022-11-07T09:55:13.222Z,15.41
2022-11-07T09:56:13.207Z,15.38
2022-11-07T09:57:14.401Z,15.40
2022-11-07T09:58:13.186Z,15.38
2022-11-07T09:59:14.488Z,15.34
2022-11-07T10:00:13.158Z,15.38
2022-11-07T10:01:13.183Z,15.35
2022-11-07T10:02:13.178Z,15.40
2022-11-07T10:03:13.291Z,15.40
2022-11-07T10:04:28.294Z,15.43
2022-11-07T10:05:13.092Z,15.34
2022-11-07T10:06:13.080Z,15.31
2022-11-07T10:07:13.060Z,15.44
2022-11-07T10:08:13.051Z,15.43
2022-11-07T10:09:13.032Z,15.44
2022-11-07T10:10:13.021Z,15.40
2022-11-07T10:11:13.007Z,15.58
2022-11-07T10:12:12.999Z,15.58
2022-11-07T10:13:13.149Z,15.53
2022-11-07T10:14:12.970Z,15.44
2022-11-07T10:15:12.954Z,15.68
2022-11-07T10:16:12.941Z,15.52
2022-11-07T10:17:12.931Z,15.68
2022-11-07T10:18:12.915Z,15.67
2022-11-07T10:19:12.899Z,15.64
2022-11-07T10:20:12.885Z,15.56
2022-11-07T10:21:39.739Z,15.68
2022-11-07T10:22:12.860Z,15.70
2022-11-07T10:23:13.083Z,15.77
2022-11-07T10:24:12.833Z,15.92
2022-11-07T10:25:12.823Z,15.88
2022-11-07T10:26:12.809Z,15.89
2022-11-07T10:27:12.798Z,15.95
2022-11-07T10:28:12.781Z,16.04
2022-11-07T10:29:12.778Z,15.98
2022-11-07T10:30:12.760Z,15.95
2022-11-07T10:31:12.845Z,15.91
2022-11-07T10:32:12.726Z,16.03
2022-11-07T10:33:12.907Z,16.03
2022-11-07T10:34:12.705Z,15.99
2022-11-07T10:35:12.695Z,16.03
2022-11-07T10:36:12.676Z,16.06
2022-11-07T10:37:12.772Z,16.06
2022-11-07T10:38:12.653Z,16.14
2022-11-07T10:39:12.641Z,16.10
2022-11-07T10:40:12.629Z,16.14
2022-11-07T10:41:12.613Z,16.14
2022-11-07T10:42:12.602Z,16.13
2022-11-07T10:43:12.957Z,16.13
2022-11-07T10:44:12.605Z,16.13
2022-11-07T10:45:12.560Z,16.13
2022-11-07T10:46:12.549Z,16.18
2022-11-07T10:47:12.538Z,16.11
2022-11-07T10:48:12.524Z,16.13
2022-11-07T10:49:12.512Z,16.08
2022-11-07T10:50:12.513Z,16.29
2022-11-07T10:51:12.489Z,16.36
2022-11-07T10:52:12.475Z,16.32
2022-11-07T10:53:12.465Z,16.34
2022-11-07T10:54:12.449Z,16.23
2022-11-07T10:55:12.434Z,16.11
2022-11-07T10:56:12.422Z,16.08
2022-11-07T10:57:12.411Z,16.14
2022-11-07T10:58:12.638Z,16.16
2022-11-07T10:59:12.389Z,16.25
2022-11-07T11:00:12.380Z,16.29
2022-11-07T11:01:12.398Z,16.33
2022-11-07T11:02:12.439Z,16.36
2022-11-07T11:03:12.438Z,16.27
2022-11-07T11:04:12.320Z,16.50
2022-11-07T11:05:12.309Z,16.34
2022-11-07T11:06:12.299Z,16.42
2022-11-07T11:07:12.287Z,16.36
2022-11-07T11:08:12.587Z,16.45
2022-11-07T11:09:12.259Z,16.36
2022-11-07T11:10:12.249Z,16.47
2022-11-07T11:11:12.251Z,16.51
2022-11-07T11:12:12.222Z,16.51
2022-11-07T11:13:12.205Z,16.51
2022-11-07T11:14:12.191Z,16.52
2022-11-07T11:15:12.190Z,16.66
2022-11-07T11:16:12.169Z,16.59
2022-11-07T11:17:12.211Z,16.63
2022-11-07T11:18:12.147Z,16.52
2022-11-07T11:19:12.133Z,16.54
2022-11-07T11:20:12.123Z,16.59
2022-11-07T11:21:12.115Z,16.59
2022-11-07T11:22:12.098Z,16.62
2022-11-07T11:23:12.083Z,16.60
2022-11-07T11:24:12.070Z,16.72
2022-11-07T11:25:12.061Z,16.65
2022-11-07T11:26:12.047Z,16.63
2022-11-07T11:27:12.034Z,16.73
2022-11-07T11:28:12.021Z,16.73
2022-11-07T11:29:12.109Z,16.50
2022-11-07T11:30:12.004Z,16.50
2022-11-07T11:31:11.984Z,16.50
2022-11-07T11:32:11.971Z,16.42
2022-11-07T11:33:11.982Z,16.44
2022-11-07T11:34:11.947Z,16.44
2022-11-07T11:35:11.935Z,16.52
2022-11-07T11:36:11.921Z,16.51
2022-11-07T11:37:11.911Z,16.62
2022-11-07T11:38:11.905Z,16.55
2022-11-07T11:39:11.882Z,16.63
2022-11-07T11:40:11.870Z,16.67
2022-11-07T11:41:11.867Z,16.75
2022-11-07T11:42:11.849Z,16.81
2022-11-07T11:43:11.838Z,16.90
2022-11-07T11:44:11.824Z,16.90
2022-11-07T11:45:11.809Z,16.87
2022-11-07T11:46:11.793Z,16.85
2022-11-07T11:47:11.782Z,16.90
2022-11-07T11:48:11.776Z,16.99
2022-11-07T11:49:11.772Z,16.99
2022-11-07T11:50:11.745Z,16.88
2022-11-07T11:51:11.746Z,16.98
2022-11-07T11:52:11.726Z,16.96
2022-11-07T11:53:11.719Z,17.09
2022-11-07T11:54:11.701Z,17.17
2022-11-07T11:55:11.691Z,17.25
2022-11-07T11:56:11.677Z,17.14
2022-11-07T11:57:11.659Z,17.27
2022-11-07T11:58:11.652Z,17.33
2022-11-07T11:59:11.644Z,17.36
2022-11-07T12:00:11.624Z,17.35
2022-11-07T12:01:11.666Z,17.36
2022-11-07T12:02:11.643Z,17.30
2022-11-07T12:03:11.593Z,17.35
2022-11-07T12:04:11.583Z,17.35
2022-11-07T12:05:11.569Z,17.45
2022-11-07T12:06:11.555Z,17.42
2022-11-07T12:07:11.552Z,17.47
2022-11-07T12:08:11.738Z,17.54
2022-11-07T12:09:17.012Z,17.63
2022-11-07T12:10:11.512Z,17.60
2022-11-07T12:11:11.499Z,17.60
2022-11-07T12:12:11.489Z,17.68
2022-11-07T12:13:11.470Z,17.83
2022-11-07T12:14:11.462Z,17.87
2022-11-07T12:15:11.458Z,17.95
2022-11-07T12:16:11.544Z,17.96
2022-11-07T12:17:11.438Z,18.10
2022-11-07T12:18:11.449Z,18.10
2022-11-07T12:19:11.407Z,18.16
2022-11-07T12:20:11.401Z,18.09
2022-11-07T12:21:11.482Z,18.05
2022-11-07T12:22:11.376Z,18.04
2022-11-07T12:23:11.357Z,18.05
2022-11-07T12:24:11.351Z,17.94
2022-11-07T12:25:11.342Z,17.89
2022-11-07T12:26:11.327Z,17.95
2022-11-07T12:27:11.314Z,17.95
2022-11-07T12:28:11.309Z,17.87
2022-11-07T12:29:11.300Z,17.89
2022-11-07T12:30:11.284Z,18.04
2022-11-07T12:31:11.272Z,18.17
2022-11-07T12:32:11.265Z,18.04
2022-11-07T12:33:11.251Z,17.99
2022-11-07T12:34:11.240Z,18.14
2022-11-07T12:35:11.229Z,18.19
2022-11-07T12:36:11.218Z,18.25
2022-11-07T12:37:11.206Z,18.34
2022-11-07T12:38:11.189Z,18.34
2022-11-07T12:39:11.184Z,18.41
2022-11-07T12:40:11.171Z,18.36
2022-11-07T12:41:11.156Z,18.39
2022-11-07T12:42:11.148Z,18.41
2022-11-07T12:43:11.136Z,18.42
2022-11-07T12:44:11.123Z,18.41
2022-11-07T12:45:11.140Z,18.49
2022-11-07T12:46:11.113Z,18.51
2022-11-07T12:47:11.092Z,18.42
2022-11-07T12:48:13.407Z,18.41
2022-11-07T12:49:11.068Z,18.39
2022-11-07T12:50:11.145Z,18.36
2022-11-07T12:51:11.050Z,18.53
2022-11-07T12:52:11.044Z,18.60
2022-11-07T12:53:11.022Z,18.57
2022-11-07T12:54:15.365Z,18.56